sensor_id;sensor_type;location;lat;lon;timestamp;P1;durP1;ratioP1;P2;durP2;ratioP2
28158;SDS011;15447;50.828;4.406;2023-11-18T06:33:01;16.08;;;3.40;;
28158;SDS011;15447;50.828;4.406;2023-11-18T06:35:27;18.40;;;3.50;;
28158;SDS011;15447;50.828;4.406;2023-11-18T06:37:54;16.45;;;4.18;;
28158;SDS011;15447;50.828;4.406;2023-11-18T06:40:20;12.18;;;3.05;;
28158;SDS011;15447;50.828;4.406;2023-11-18T06:42:47;14.18;;;2.67;;
28158;SDS011;15447;50.828;4.406;2023-11-18T06:45:13;15.23;;;3.20;;
28158;SDS011;15447;50.828;4.406;2023-11-18T06:47:40;10.60;;;3.17;;
28158;SDS011;15447;50.828;4.406;2023-11-18T06:50:10;13.88;;;3.03;;
28158;SDS011;15447;50.828;4.406;2023-11-18T06:52:39;12.23;;;3.55;;
28158;SDS011;15447;50.828;4.406;2023-11-18T06:55:06;17.73;;;3.55;;
28158;SDS011;15447;50.828;4.406;2023-11-18T06:57:32;18.27;;;3.50;;
28158;SDS011;15447;50.828;4.406;2023-11-18T06:59:58;13.95;;;3.05;;
28158;SDS011;15447;50.828;4.406;2023-11-18T07:02:24;13.48;;;3.53;;
28158;SDS011;15447;50.828;4.406;2023-11-18T07:04:49;15.13;;;3.13;;
28158;SDS011;15447;50.828;4.406;2023-11-18T07:07:15;10.45;;;3.22;;
28158;SDS011;15447;50.828;4.406;2023-11-18T07:09:41;14.90;;;3.40;;
28158;SDS011;15447;50.828;4.406;2023-11-18T07:12:09;16.23;;;3.20;;
28158;SDS011;15447;50.828;4.406;2023-11-18T07:14:35;14.50;;;3.47;;
28158;SDS011;15447;50.828;4.406;2023-11-18T07:17:01;9.82;;;3.15;;
28158;SDS011;15447;50.828;4.406;2023-11-18T07:19:26;13.65;;;3.47;;
28158;SDS011;15447;50.828;4.406;2023-11-18T07:21:54;13.82;;;3.60;;
28158;SDS011;15447;50.828;4.406;2023-11-18T07:24:19;14.10;;;3.30;;
28158;SDS011;15447;50.828;4.406;2023-11-18T07:26:45;11.00;;;3.65;;
28158;SDS011;15447;50.828;4.406;2023-11-18T07:29:11;15.38;;;4.13;;
28158;SDS011;15447;50.828;4.406;2023-11-18T07:31:39;11.35;;;3.85;;
28158;SDS011;15447;50.828;4.406;2023-11-18T07:34:13;12.63;;;3.92;;
28158;SDS011;15447;50.828;4.406;2023-11-18T07:37:11;12.52;;;5.13;;
28158;SDS011;15447;50.828;4.406;2023-11-18T07:39:42;11.40;;;4.80;;
28158;SDS011;15447;50.828;4.406;2023-11-18T07:42:13;16.45;;;5.18;;
28158;SDS011;15447;50.828;4.406;2023-11-18T07:44:39;19.73;;;6.18;;
28158;SDS011;15447;50.828;4.406;2023-11-18T07:47:13;20.75;;;6.10;;
28158;SDS011;15447;50.828;4.406;2023-11-18T07:49:49;23.23;;;6.68;;
28158;SDS011;15447;50.828;4.406;2023-11-18T07:52:15;21.95;;;6.35;;
28158;SDS011;15447;50.828;4.406;2023-11-18T07:54:49;26.83;;;7.53;;
28158;SDS011;15447;50.828;4.406;2023-11-18T07:57:17;26.08;;;7.30;;
28158;SDS011;15447;50.828;4.406;2023-11-18T07:59:56;20.50;;;7.45;;
28158;SDS011;15447;50.828;4.406;2023-11-18T08:02:32;17.48;;;6.40;;
28158;SDS011;15447;50.828;4.406;2023-11-18T08:05:07;26.42;;;8.50;;
28158;SDS011;15447;50.828;4.406;2023-11-18T08:08:02;29.33;;;8.75;;
28158;SDS011;15447;50.828;4.406;2023-11-18T08:10:41;29.17;;;9.27;;
28158;SDS011;15447;50.828;4.406;2023-11-18T08:16:04;26.65;;;9.27;;
28158;SDS011;15447;50.828;4.406;2023-11-18T08:18:33;23.23;;;8.73;;
28158;SDS011;15447;50.828;4.406;2023-11-18T08:21:00;27.67;;;10.55;;
28158;SDS011;15447;50.828;4.406;2023-11-18T08:23:27;26.70;;;9.45;;
28158;SDS011;15447;50.828;4.406;2023-11-18T08:25:56;22.52;;;8.32;;
28158;SDS011;15447;50.828;4.406;2023-11-18T08:28:22;28.55;;;9.40;;
28158;SDS011;15447;50.828;4.406;2023-11-18T08:30:48;24.98;;;9.18;;
28158;SDS011;15447;50.828;4.406;2023-11-18T08:33:16;28.50;;;9.70;;
28158;SDS011;15447;50.828;4.406;2023-11-18T08:35:44;31.67;;;9.93;;
28158;SDS011;15447;50.828;4.406;2023-11-18T08:38:10;24.10;;;9.63;;
28158;SDS011;15447;50.828;4.406;2023-11-18T08:40:37;25.88;;;9.80;;
28158;SDS011;15447;50.828;4.406;2023-11-18T08:43:03;28.17;;;10.48;;
28158;SDS011;15447;50.828;4.406;2023-11-18T08:45:32;30.05;;;9.20;;
28158;SDS011;15447;50.828;4.406;2023-11-18T08:48:03;23.00;;;9.90;;
28158;SDS011;15447;50.828;4.406;2023-11-18T08:52:59;24.67;;;9.05;;
28158;SDS011;15447;50.828;4.406;2023-11-18T08:55:28;22.48;;;9.35;;
28158;SDS011;15447;50.828;4.406;2023-11-18T08:58:04;24.90;;;8.73;;
28158;SDS011;15447;50.828;4.406;2023-11-18T09:00:43;20.90;;;9.25;;
28158;SDS011;15447;50.828;4.406;2023-11-18T09:03:14;23.67;;;8.40;;
28158;SDS011;15447;50.828;4.406;2023-11-18T09:05:50;19.90;;;8.05;;
28158;SDS011;15447;50.828;4.406;2023-11-18T09:08:24;21.20;;;8.25;;
28158;SDS011;15447;50.828;4.406;2023-11-18T09:10:49;24.83;;;8.75;;
28158;SDS011;15447;50.828;4.406;2023-11-18T09:13:18;29.35;;;8.30;;
28158;SDS011;15447;50.828;4.406;2023-11-18T09:15:54;21.20;;;8.50;;
28158;SDS011;15447;50.828;4.406;2023-11-18T09:18:21;16.65;;;6.57;;
28158;SDS011;15447;50.828;4.406;2023-11-18T09:20:47;22.05;;;7.93;;
28158;SDS011;15447;50.828;4.406;2023-11-18T09:23:13;22.35;;;8.20;;
28158;SDS011;15447;50.828;4.406;2023-11-18T09:25:40;17.85;;;7.95;;
28158;SDS011;15447;50.828;4.406;2023-11-18T09:28:07;28.42;;;8.93;;
28158;SDS011;15447;50.828;4.406;2023-11-18T09:30:36;22.95;;;7.80;;
28158;SDS011;15447;50.828;4.406;2023-11-18T09:33:14;21.77;;;7.95;;
28158;SDS011;15447;50.828;4.406;2023-11-18T09:35:50;21.17;;;8.68;;
28158;SDS011;15447;50.828;4.406;2023-11-18T09:38:23;23.85;;;8.70;;
28158;SDS011;15447;50.828;4.406;2023-11-18T09:40:50;22.05;;;9.35;;
28158;SDS011;15447;50.828;4.406;2023-11-18T09:43:18;21.10;;;8.75;;
28158;SDS011;15447;50.828;4.406;2023-11-18T09:45:45;16.08;;;7.38;;
28158;SDS011;15447;50.828;4.406;2023-11-18T09:48:13;16.05;;;7.68;;
28158;SDS011;15447;50.828;4.406;2023-11-18T09:50:45;15.50;;;8.80;;
28158;SDS011;15447;50.828;4.406;2023-11-18T09:53:13;22.40;;;8.98;;
28158;SDS011;15447;50.828;4.406;2023-11-18T09:55:46;22.75;;;8.82;;
28158;SDS011;15447;50.828;4.406;2023-11-18T09:58:20;22.60;;;9.07;;
28158;SDS011;15447;50.828;4.406;2023-11-18T10:00:49;21.13;;;8.93;;
28158;SDS011;15447;50.828;4.406;2023-11-18T10:03:21;24.90;;;9.93;;
28158;SDS011;15447;50.828;4.406;2023-11-18T10:05:47;16.65;;;8.98;;
28158;SDS011;15447;50.828;4.406;2023-11-18T10:08:18;23.95;;;9.45;;
28158;SDS011;15447;50.828;4.406;2023-11-18T10:10:48;17.85;;;7.95;;
28158;SDS011;15447;50.828;4.406;2023-11-18T10:13:14;22.35;;;9.10;;
28158;SDS011;15447;50.828;4.406;2023-11-18T10:15:51;15.88;;;7.00;;
28158;SDS011;15447;50.828;4.406;2023-11-18T10:18:28;20.83;;;7.60;;
28158;SDS011;15447;50.828;4.406;2023-11-18T10:20:56;16.10;;;8.63;;
28158;SDS011;15447;50.828;4.406;2023-11-18T10:23:24;16.70;;;7.70;;
28158;SDS011;15447;50.828;4.406;2023-11-18T10:25:55;18.40;;;8.20;;
28158;SDS011;15447;50.828;4.406;2023-11-18T10:28:32;14.10;;;7.70;;
28158;SDS011;15447;50.828;4.406;2023-11-18T10:30:59;21.17;;;8.00;;
28158;SDS011;15447;50.828;4.406;2023-11-18T10:33:36;13.98;;;7.40;;
28158;SDS011;15447;50.828;4.406;2023-11-18T10:36:03;13.52;;;7.38;;
28158;SDS011;15447;50.828;4.406;2023-11-18T10:38:32;16.70;;;7.80;;
28158;SDS011;15447;50.828;4.406;2023-11-18T10:41:14;16.05;;;7.53;;
28158;SDS011;15447;50.828;4.406;2023-11-18T10:43:41;15.63;;;7.00;;
28158;SDS011;15447;50.828;4.406;2023-11-18T10:46:10;14.02;;;6.82;;
28158;SDS011;15447;50.828;4.406;2023-11-18T10:48:41;15.35;;;7.70;;
28158;SDS011;15447;50.828;4.406;2023-11-18T10:51:10;16.60;;;7.03;;
28158;SDS011;15447;50.828;4.406;2023-11-18T10:53:37;14.20;;;7.07;;
28158;SDS011;15447;50.828;4.406;2023-11-18T10:56:06;14.38;;;6.63;;
28158;SDS011;15447;50.828;4.406;2023-11-18T10:58:44;13.10;;;5.53;;
28158;SDS011;15447;50.828;4.406;2023-11-18T11:01:11;10.68;;;6.03;;
28158;SDS011;15447;50.828;4.406;2023-11-18T11:03:52;12.88;;;6.88;;
28158;SDS011;15447;50.828;4.406;2023-11-18T11:06:22;10.80;;;6.00;;
28158;SDS011;15447;50.828;4.406;2023-11-18T11:08:55;10.90;;;6.05;;
28158;SDS011;15447;50.828;4.406;2023-11-18T11:11:24;17.65;;;8.10;;
28158;SDS011;15447;50.828;4.406;2023-11-18T11:13:53;10.77;;;5.28;;
28158;SDS011;15447;50.828;4.406;2023-11-18T11:16:22;11.07;;;4.97;;
28158;SDS011;15447;50.828;4.406;2023-11-18T11:18:55;13.53;;;5.20;;
28158;SDS011;15447;50.828;4.406;2023-11-18T11:21:26;7.00;;;3.13;;
28158;SDS011;15447;50.828;4.406;2023-11-18T11:23:55;14.88;;;4.53;;
28158;SDS011;15447;50.828;4.406;2023-11-18T11:26:50;6.57;;;4.18;;
28158;SDS011;15447;50.828;4.406;2023-11-18T11:31:57;7.57;;;4.35;;
28158;SDS011;15447;50.828;4.406;2023-11-18T11:34:53;5.75;;;3.30;;
28158;SDS011;15447;50.828;4.406;2023-11-18T11:37:22;7.32;;;3.75;;
28158;SDS011;15447;50.828;4.406;2023-11-18T11:39:51;7.00;;;3.47;;
28158;SDS011;15447;50.828;4.406;2023-11-18T11:42:20;5.05;;;3.17;;
28158;SDS011;15447;50.828;4.406;2023-11-18T11:44:48;7.40;;;3.17;;
28158;SDS011;15447;50.828;4.406;2023-11-18T11:47:17;8.88;;;3.47;;
28158;SDS011;15447;50.828;4.406;2023-11-18T11:49:57;7.28;;;3.08;;
28158;SDS011;15447;50.828;4.406;2023-11-18T11:52:35;4.60;;;2.30;;
28158;SDS011;15447;50.828;4.406;2023-11-18T11:55:09;3.95;;;2.47;;
28158;SDS011;15447;50.828;4.406;2023-11-18T11:57:40;2.75;;;2.53;;
28158;SDS011;15447;50.828;4.406;2023-11-18T12:00:10;3.90;;;2.13;;
28158;SDS011;15447;50.828;4.406;2023-11-18T12:02:40;4.70;;;2.35;;
28158;SDS011;15447;50.828;4.406;2023-11-18T12:05:15;3.08;;;2.42;;
28158;SDS011;15447;50.828;4.406;2023-11-18T12:07:49;5.90;;;2.75;;
28158;SDS011;15447;50.828;4.406;2023-11-18T12:10:15;5.93;;;2.00;;
28158;SDS011;15447;50.828;4.406;2023-11-18T12:12:49;8.38;;;2.40;;
28158;SDS011;15447;50.828;4.406;2023-11-18T12:15:22;3.10;;;2.45;;
28158;SDS011;15447;50.828;4.406;2023-11-18T12:18:29;5.10;;;2.53;;
28158;SDS011;15447;50.828;4.406;2023-11-18T12:20:58;3.97;;;2.50;;
28158;SDS011;15447;50.828;4.406;2023-11-18T12:23:27;4.93;;;1.90;;
28158;SDS011;15447;50.828;4.406;2023-11-18T12:25:54;3.58;;;2.20;;
28158;SDS011;15447;50.828;4.406;2023-11-18T12:28:24;10.30;;;3.25;;
28158;SDS011;15447;50.828;4.406;2023-11-18T12:30:52;4.93;;;2.28;;
28158;SDS011;15447;50.828;4.406;2023-11-18T12:33:25;1.55;;;1.20;;
28158;SDS011;15447;50.828;4.406;2023-11-18T12:39:17;2.40;;;1.60;;
28158;SDS011;15447;50.828;4.406;2023-11-18T12:41:55;6.07;;;2.92;;
28158;SDS011;15447;50.828;4.406;2023-11-18T12:44:52;4.22;;;2.00;;
28158;SDS011;15447;50.828;4.406;2023-11-18T12:47:27;3.50;;;2.33;;
28158;SDS011;15447;50.828;4.406;2023-11-18T12:49:57;4.13;;;1.60;;
28158;SDS011;15447;50.828;4.406;2023-11-18T12:52:25;8.48;;;3.22;;
28158;SDS011;15447;50.828;4.406;2023-11-18T12:54:53;2.20;;;1.65;;
28158;SDS011;15447;50.828;4.406;2023-11-18T12:57:26;2.90;;;1.83;;
28158;SDS011;15447;50.828;4.406;2023-11-18T13:02:22;2.95;;;1.30;;
28158;SDS011;15447;50.828;4.406;2023-11-18T13:04:48;1.50;;;1.30;;
28158;SDS011;15447;50.828;4.406;2023-11-18T13:07:15;2.45;;;1.40;;
28158;SDS011;15447;50.828;4.406;2023-11-18T13:09:42;4.18;;;2.20;;
28158;SDS011;15447;50.828;4.406;2023-11-18T13:12:10;2.17;;;1.52;;
28158;SDS011;15447;50.828;4.406;2023-11-18T13:14:39;2.03;;;1.50;;
28158;SDS011;15447;50.828;4.406;2023-11-18T13:17:10;5.65;;;1.20;;
28158;SDS011;15447;50.828;4.406;2023-11-18T13:19:38;3.35;;;1.88;;
28158;SDS011;15447;50.828;4.406;2023-11-18T13:22:05;4.53;;;1.67;;
28158;SDS011;15447;50.828;4.406;2023-11-18T13:24:36;16.05;;;0.90;;
28158;SDS011;15447;50.828;4.406;2023-11-18T13:27:06;3.05;;;1.65;;
28158;SDS011;15447;50.828;4.406;2023-11-18T13:29:35;2.42;;;1.27;;
28158;SDS011;15447;50.828;4.406;2023-11-18T13:32:02;3.00;;;1.30;;
28158;SDS011;15447;50.828;4.406;2023-11-18T13:34:32;1.35;;;1.10;;
28158;SDS011;15447;50.828;4.406;2023-11-18T13:37:02;1.80;;;1.13;;
28158;SDS011;15447;50.828;4.406;2023-11-18T13:39:32;3.50;;;1.30;;
28158;SDS011;15447;50.828;4.406;2023-11-18T13:41:58;2.75;;;1.13;;
28158;SDS011;15447;50.828;4.406;2023-11-18T13:44:42;1.75;;;1.52;;
28158;SDS011;15447;50.828;4.406;2023-11-18T13:47:12;3.28;;;1.40;;
28158;SDS011;15447;50.828;4.406;2023-11-18T13:49:39;1.10;;;1.00;;
28158;SDS011;15447;50.828;4.406;2023-11-18T13:52:05;1.35;;;1.25;;
28158;SDS011;15447;50.828;4.406;2023-11-18T13:54:37;2.17;;;1.63;;
28158;SDS011;15447;50.828;4.406;2023-11-18T13:57:03;5.40;;;2.00;;
28158;SDS011;15447;50.828;4.406;2023-11-18T13:59:30;3.58;;;1.48;;
28158;SDS011;15447;50.828;4.406;2023-11-18T14:01:58;3.30;;;1.48;;
28158;SDS011;15447;50.828;4.406;2023-11-18T14:04:27;1.25;;;1.15;;
28158;SDS011;15447;50.828;4.406;2023-11-18T14:06:57;2.58;;;1.80;;
28158;SDS011;15447;50.828;4.406;2023-11-18T14:09:25;1.77;;;0.90;;
28158;SDS011;15447;50.828;4.406;2023-11-18T14:11:52;3.95;;;1.63;;
28158;SDS011;15447;50.828;4.406;2023-11-18T14:14:23;3.22;;;1.45;;
28158;SDS011;15447;50.828;4.406;2023-11-18T14:16:50;1.88;;;1.08;;
28158;SDS011;15447;50.828;4.406;2023-11-18T14:19:23;2.22;;;1.50;;
28158;SDS011;15447;50.828;4.406;2023-11-18T14:22:00;1.15;;;1.05;;
28158;SDS011;15447;50.828;4.406;2023-11-18T14:24:39;1.85;;;1.60;;
28158;SDS011;15447;50.828;4.406;2023-11-18T14:27:15;2.67;;;1.50;;
28158;SDS011;15447;50.828;4.406;2023-11-18T14:29:41;4.93;;;1.40;;
28158;SDS011;15447;50.828;4.406;2023-11-18T14:32:15;1.60;;;1.17;;
28158;SDS011;15447;50.828;4.406;2023-11-18T14:34:47;1.95;;;1.30;;
28158;SDS011;15447;50.828;4.406;2023-11-18T14:37:17;2.55;;;1.42;;
28158;SDS011;15447;50.828;4.406;2023-11-18T14:39:46;1.65;;;1.30;;
28158;SDS011;15447;50.828;4.406;2023-11-18T14:42:15;2.42;;;1.10;;
28158;SDS011;15447;50.828;4.406;2023-11-18T14:44:41;1.20;;;1.00;;
28158;SDS011;15447;50.828;4.406;2023-11-18T14:47:23;1.77;;;1.00;;
28158;SDS011;15447;50.828;4.406;2023-11-18T14:49:55;1.58;;;1.10;;
28158;SDS011;15447;50.828;4.406;2023-11-18T14:52:33;2.20;;;1.20;;
28158;SDS011;15447;50.828;4.406;2023-11-18T14:55:27;2.35;;;1.30;;
28158;SDS011;15447;50.828;4.406;2023-11-18T14:58:15;1.75;;;1.17;;
28158;SDS011;15447;50.828;4.406;2023-11-18T15:00:52;2.60;;;0.95;;
28158;SDS011;15447;50.828;4.406;2023-11-18T15:03:41;4.18;;;1.10;;
28158;SDS011;15447;50.828;4.406;2023-11-18T15:06:33;2.78;;;1.08;;
28158;SDS011;15447;50.828;4.406;2023-11-18T15:09:25;2.83;;;1.70;;
28158;SDS011;15447;50.828;4.406;2023-11-18T15:12:00;3.20;;;1.77;;
28158;SDS011;15447;50.828;4.406;2023-11-18T15:14:39;1.52;;;1.23;;
28158;SDS011;15447;50.828;4.406;2023-11-18T15:17:16;2.00;;;1.27;;
28158;SDS011;15447;50.828;4.406;2023-11-18T15:19:44;1.60;;;1.10;;
28158;SDS011;15447;50.828;4.406;2023-11-18T15:22:40;1.40;;;1.27;;
28158;SDS011;15447;50.828;4.406;2023-11-18T15:25:28;2.00;;;1.30;;
28158;SDS011;15447;50.828;4.406;2023-11-18T15:28:18;0.80;;;0.80;;
28158;SDS011;15447;50.828;4.406;2023-11-18T15:30:52;3.22;;;1.58;;
28158;SDS011;15447;50.828;4.406;2023-11-18T15:33:27;3.25;;;1.60;;
28158;SDS011;15447;50.828;4.406;2023-11-18T15:36:03;2.30;;;1.58;;
28158;SDS011;15447;50.828;4.406;2023-11-18T15:41:28;3.22;;;1.60;;
28158;SDS011;15447;50.828;4.406;2023-11-18T15:44:02;5.88;;;1.80;;
28158;SDS011;15447;50.828;4.406;2023-11-18T15:46:28;1.95;;;1.30;;
28158;SDS011;15447;50.828;4.406;2023-11-18T15:48:53;3.33;;;1.50;;
28158;SDS011;15447;50.828;4.406;2023-11-18T15:51:20;1.70;;;1.33;;
28158;SDS011;15447;50.828;4.406;2023-11-18T15:53:47;4.65;;;2.08;;
28158;SDS011;15447;50.828;4.406;2023-11-18T15:56:12;3.10;;;1.70;;
28158;SDS011;15447;50.828;4.406;2023-11-18T15:58:40;2.35;;;1.67;;
28158;SDS011;15447;50.828;4.406;2023-11-18T16:01:06;2.13;;;1.38;;
28158;SDS011;15447;50.828;4.406;2023-11-18T16:03:34;2.38;;;1.70;;
28158;SDS011;15447;50.828;4.406;2023-11-18T16:06:00;2.67;;;2.03;;
28158;SDS011;15447;50.828;4.406;2023-11-18T16:08:25;3.35;;;2.50;;
28158;SDS011;15447;50.828;4.406;2023-11-18T16:10:51;3.40;;;2.15;;
28158;SDS011;15447;50.828;4.406;2023-11-18T16:13:18;3.97;;;2.40;;
28158;SDS011;15447;50.828;4.406;2023-11-18T16:15:45;2.80;;;2.22;;
28158;SDS011;15447;50.828;4.406;2023-11-18T16:18:10;2.17;;;1.98;;
28158;SDS011;15447;50.828;4.406;2023-11-18T16:20:36;5.05;;;2.83;;
28158;SDS011;15447;50.828;4.406;2023-11-18T16:23:02;3.42;;;2.50;;
28158;SDS011;15447;50.828;4.406;2023-11-18T16:25:28;5.43;;;3.20;;
28158;SDS011;15447;50.828;4.406;2023-11-18T16:27:59;2.90;;;2.35;;
28158;SDS011;15447;50.828;4.406;2023-11-18T16:30:27;3.03;;;2.33;;
28158;SDS011;15447;50.828;4.406;2023-11-18T16:32:57;3.33;;;2.40;;
28158;SDS011;15447;50.828;4.406;2023-11-18T16:35:25;3.35;;;2.63;;
28158;SDS011;15447;50.828;4.406;2023-11-18T16:37:51;3.70;;;2.83;;
28158;SDS011;15447;50.828;4.406;2023-11-18T16:40:17;7.82;;;3.22;;
28158;SDS011;15447;50.828;4.406;2023-11-18T16:42:49;4.63;;;2.63;;
28158;SDS011;15447;50.828;4.406;2023-11-18T16:45:16;3.65;;;2.97;;
28158;SDS011;15447;50.828;4.406;2023-11-18T16:47:47;2.88;;;2.40;;
28158;SDS011;15447;50.828;4.406;2023-11-18T16:50:17;4.57;;;3.22;;
28158;SDS011;15447;50.828;4.406;2023-11-18T16:52:43;4.32;;;3.05;;
28158;SDS011;15447;50.828;4.406;2023-11-18T16:55:09;3.58;;;3.00;;
28158;SDS011;15447;50.828;4.406;2023-11-18T16:57:36;4.47;;;3.10;;
28158;SDS011;15447;50.828;4.406;2023-11-18T17:00:02;4.18;;;3.22;;
28158;SDS011;15447;50.828;4.406;2023-11-18T17:02:41;4.78;;;3.50;;
28158;SDS011;15447;50.828;4.406;2023-11-18T17:05:10;5.55;;;3.60;;
28158;SDS011;15447;50.828;4.406;2023-11-18T17:07:36;6.93;;;4.78;;
28158;SDS011;15447;50.828;4.406;2023-11-18T17:10:02;7.65;;;4.60;;
28158;SDS011;15447;50.828;4.406;2023-11-18T17:12:32;6.45;;;4.43;;
28158;SDS011;15447;50.828;4.406;2023-11-18T17:14:57;6.30;;;4.20;;
28158;SDS011;15447;50.828;4.406;2023-11-18T17:17:25;8.68;;;4.28;;
28158;SDS011;15447;50.828;4.406;2023-11-18T17:19:50;7.18;;;4.53;;
28158;SDS011;15447;50.828;4.406;2023-11-18T17:22:16;6.13;;;4.85;;
28158;SDS011;15447;50.828;4.406;2023-11-18T17:24:44;7.13;;;4.85;;
28158;SDS011;15447;50.828;4.406;2023-11-18T17:27:10;8.30;;;5.78;;
28158;SDS011;15447;50.828;4.406;2023-11-18T17:29:37;10.75;;;6.15;;
28158;SDS011;15447;50.828;4.406;2023-11-18T17:32:02;9.23;;;5.72;;
28158;SDS011;15447;50.828;4.406;2023-11-18T17:34:31;11.30;;;6.80;;
28158;SDS011;15447;50.828;4.406;2023-11-18T17:36:57;10.25;;;5.57;;
28158;SDS011;15447;50.828;4.406;2023-11-18T17:39:23;8.68;;;6.05;;
28158;SDS011;15447;50.828;4.406;2023-11-18T17:41:49;9.52;;;6.65;;
28158;SDS011;15447;50.828;4.406;2023-11-18T17:44:16;9.15;;;6.40;;
28158;SDS011;15447;50.828;4.406;2023-11-18T17:46:51;13.80;;;7.60;;
28158;SDS011;15447;50.828;4.406;2023-11-18T17:49:19;9.50;;;6.03;;
28158;SDS011;15447;50.828;4.406;2023-11-18T17:51:44;9.70;;;6.00;;
28158;SDS011;15447;50.828;4.406;2023-11-18T17:54:10;11.80;;;7.40;;
28158;SDS011;15447;50.828;4.406;2023-11-18T17:56:39;9.63;;;7.05;;
28158;SDS011;15447;50.828;4.406;2023-11-18T17:59:07;12.25;;;6.82;;
28158;SDS011;15447;50.828;4.406;2023-11-18T18:01:36;10.68;;;7.25;;
28158;SDS011;15447;50.828;4.406;2023-11-18T18:04:01;9.48;;;6.93;;
28158;SDS011;15447;50.828;4.406;2023-11-18T18:06:27;14.13;;;7.95;;
28158;SDS011;15447;50.828;4.406;2023-11-18T18:08:53;10.15;;;7.03;;
28158;SDS011;15447;50.828;4.406;2023-11-18T18:11:19;12.95;;;8.05;;
28158;SDS011;15447;50.828;4.406;2023-11-18T18:13:47;11.90;;;7.28;;
28158;SDS011;15447;50.828;4.406;2023-11-18T18:16:12;9.02;;;6.43;;
28158;SDS011;15447;50.828;4.406;2023-11-18T18:18:41;9.23;;;6.88;;
28158;SDS011;15447;50.828;4.406;2023-11-18T18:21:07;8.55;;;6.78;;
28158;SDS011;15447;50.828;4.406;2023-11-18T18:23:33;11.55;;;6.90;;
28158;SDS011;15447;50.828;4.406;2023-11-18T18:25:59;10.23;;;6.68;;
28158;SDS011;15447;50.828;4.406;2023-11-18T18:28:24;9.90;;;6.80;;
28158;SDS011;15447;50.828;4.406;2023-11-18T18:30:53;11.57;;;7.40;;
28158;SDS011;15447;50.828;4.406;2023-11-18T18:33:19;9.27;;;7.20;;
28158;SDS011;15447;50.828;4.406;2023-11-18T18:35:45;9.82;;;6.38;;
28158;SDS011;15447;50.828;4.406;2023-11-18T18:38:12;9.30;;;6.85;;
28158;SDS011;15447;50.828;4.406;2023-11-18T18:40:38;7.30;;;6.22;;
28158;SDS011;15447;50.828;4.406;2023-11-18T18:43:04;11.15;;;5.82;;
28158;SDS011;15447;50.828;4.406;2023-11-18T18:45:34;11.82;;;6.95;;
28158;SDS011;15447;50.828;4.406;2023-11-18T18:48:01;9.02;;;5.95;;
28158;SDS011;15447;50.828;4.406;2023-11-18T18:50:27;9.30;;;7.07;;
28158;SDS011;15447;50.828;4.406;2023-11-18T18:52:59;12.20;;;6.97;;
28158;SDS011;15447;50.828;4.406;2023-11-18T18:55:28;10.10;;;7.65;;
28158;SDS011;15447;50.828;4.406;2023-11-18T18:57:53;9.45;;;7.60;;
28158;SDS011;15447;50.828;4.406;2023-11-18T19:00:20;11.95;;;7.45;;
28158;SDS011;15447;50.828;4.406;2023-11-18T19:02:46;15.23;;;8.05;;
28158;SDS011;15447;50.828;4.406;2023-11-18T19:05:12;8.70;;;6.88;;
28158;SDS011;15447;50.828;4.406;2023-11-18T19:07:39;14.05;;;8.75;;
28158;SDS011;15447;50.828;4.406;2023-11-18T19:10:06;11.00;;;7.95;;
28158;SDS011;15447;50.828;4.406;2023-11-18T19:12:33;15.32;;;8.02;;
28158;SDS011;15447;50.828;4.406;2023-11-18T19:14:59;11.18;;;7.57;;
28158;SDS011;15447;50.828;4.406;2023-11-18T19:17:28;15.13;;;8.32;;
28158;SDS011;15447;50.828;4.406;2023-11-18T19:19:54;12.18;;;7.93;;
28158;SDS011;15447;50.828;4.406;2023-11-18T19:22:20;14.23;;;8.82;;
28158;SDS011;15447;50.828;4.406;2023-11-18T19:24:45;10.93;;;7.78;;
28158;SDS011;15447;50.828;4.406;2023-11-18T19:27:12;9.52;;;7.80;;
28158;SDS011;15447;50.828;4.406;2023-11-18T19:29:39;10.85;;;7.82;;
28158;SDS011;15447;50.828;4.406;2023-11-18T19:32:06;9.20;;;7.47;;
28158;SDS011;15447;50.828;4.406;2023-11-18T19:34:34;10.63;;;6.95;;
28158;SDS011;15447;50.828;4.406;2023-11-18T19:37:00;11.25;;;6.82;;
28158;SDS011;15447;50.828;4.406;2023-11-18T19:39:25;9.63;;;6.95;;
28158;SDS011;15447;50.828;4.406;2023-11-18T19:41:52;9.82;;;7.20;;
28158;SDS011;15447;50.828;4.406;2023-11-18T19:44:17;11.98;;;6.68;;
28158;SDS011;15447;50.828;4.406;2023-11-18T19:46:43;11.00;;;7.10;;
28158;SDS011;15447;50.828;4.406;2023-11-18T19:49:14;11.27;;;7.53;;
28158;SDS011;15447;50.828;4.406;2023-11-18T19:51:41;12.75;;;8.60;;
28158;SDS011;15447;50.828;4.406;2023-11-18T19:54:10;10.23;;;7.28;;
28158;SDS011;15447;50.828;4.406;2023-11-18T19:56:36;8.57;;;6.55;;
28158;SDS011;15447;50.828;4.406;2023-11-18T19:59:03;11.50;;;8.38;;
28158;SDS011;15447;50.828;4.406;2023-11-18T20:01:32;13.85;;;7.53;;
28158;SDS011;15447;50.828;4.406;2023-11-18T20:03:58;15.52;;;9.25;;
28158;SDS011;15447;50.828;4.406;2023-11-18T20:06:24;14.50;;;10.07;;
28158;SDS011;15447;50.828;4.406;2023-11-18T20:08:50;12.05;;;9.25;;
28158;SDS011;15447;50.828;4.406;2023-11-18T20:11:16;12.98;;;7.70;;
28158;SDS011;15447;50.828;4.406;2023-11-18T20:13:41;17.08;;;13.50;;
28158;SDS011;15447;50.828;4.406;2023-11-18T20:16:07;14.55;;;8.88;;
28158;SDS011;15447;50.828;4.406;2023-11-18T20:18:34;16.95;;;10.82;;
28158;SDS011;15447;50.828;4.406;2023-11-18T20:21:00;12.93;;;9.07;;
28158;SDS011;15447;50.828;4.406;2023-11-18T20:23:25;12.77;;;8.95;;
28158;SDS011;15447;50.828;4.406;2023-11-18T20:25:51;11.55;;;8.20;;
28158;SDS011;15447;50.828;4.406;2023-11-18T20:28:19;9.52;;;8.07;;
28158;SDS011;15447;50.828;4.406;2023-11-18T20:30:45;11.48;;;7.78;;
28158;SDS011;15447;50.828;4.406;2023-11-18T20:33:11;15.52;;;10.90;;
28158;SDS011;15447;50.828;4.406;2023-11-18T20:35:37;12.85;;;9.30;;
28158;SDS011;15447;50.828;4.406;2023-11-18T20:38:02;11.32;;;8.00;;
28158;SDS011;15447;50.828;4.406;2023-11-18T20:40:28;12.27;;;6.85;;
28158;SDS011;15447;50.828;4.406;2023-11-18T20:42:55;15.07;;;9.88;;
28158;SDS011;15447;50.828;4.406;2023-11-18T20:45:21;11.57;;;7.20;;
28158;SDS011;15447;50.828;4.406;2023-11-18T20:47:47;15.88;;;8.35;;
28158;SDS011;15447;50.828;4.406;2023-11-18T20:50:16;8.23;;;5.88;;
28158;SDS011;15447;50.828;4.406;2023-11-18T20:52:42;7.32;;;5.68;;
28158;SDS011;15447;50.828;4.406;2023-11-18T20:55:08;7.10;;;5.00;;
28158;SDS011;15447;50.828;4.406;2023-11-18T20:57:35;8.70;;;5.55;;
28158;SDS011;15447;50.828;4.406;2023-11-18T21:00:03;7.55;;;5.57;;
28158;SDS011;15447;50.828;4.406;2023-11-18T21:02:35;7.53;;;5.20;;
28158;SDS011;15447;50.828;4.406;2023-11-18T21:05:04;6.07;;;5.00;;
28158;SDS011;15447;50.828;4.406;2023-11-18T21:07:36;7.05;;;4.90;;
28158;SDS011;15447;50.828;4.406;2023-11-18T21:10:02;7.82;;;5.38;;
28158;SDS011;15447;50.828;4.406;2023-11-18T21:12:31;6.78;;;4.85;;
28158;SDS011;15447;50.828;4.406;2023-11-18T21:15:00;5.82;;;4.70;;
28158;SDS011;15447;50.828;4.406;2023-11-18T21:17:28;7.20;;;5.22;;
28158;SDS011;15447;50.828;4.406;2023-11-18T21:19:54;7.25;;;4.78;;
28158;SDS011;15447;50.828;4.406;2023-11-18T21:22:19;7.78;;;5.38;;
28158;SDS011;15447;50.828;4.406;2023-11-18T21:24:47;5.93;;;4.35;;
28158;SDS011;15447;50.828;4.406;2023-11-18T21:27:13;7.22;;;4.72;;
28158;SDS011;15447;50.828;4.406;2023-11-18T21:29:39;5.22;;;4.45;;
28158;SDS011;15447;50.828;4.406;2023-11-18T21:32:05;7.40;;;5.13;;
28158;SDS011;15447;50.828;4.406;2023-11-18T21:34:31;9.45;;;5.55;;
28158;SDS011;15447;50.828;4.406;2023-11-18T21:36:57;7.35;;;4.90;;
28158;SDS011;15447;50.828;4.406;2023-11-18T21:39:22;8.50;;;5.38;;
28158;SDS011;15447;50.828;4.406;2023-11-18T21:41:48;6.80;;;4.93;;
28158;SDS011;15447;50.828;4.406;2023-11-18T21:44:14;8.65;;;5.13;;